Time;durP1;ratioP1;P1;durP2;ratioP2;P2;SDS_P1;SDS_P2;PMS_P1;PMS_P2;Temp;Humidity;BMP_temperature;BMP_pressure;BME280_temperature;BME280_humidity;BME280_pressure;Samples;Min_cycle;Max_cycle;Signal;HPM_P1;HPM_P2
2022/05/02 00:01:57;;;;;;;6.43;3.90;;;8.70;91.30;;;;;;4896624;29;20035;-81
2022/05/02 00:04:23;;;;;;;6.43;4.22;;;8.70;91.40;;;;;;4867502;29;20132;-81
2022/05/02 00:06:59;;;;;;;6.88;4.70;;;8.70;91.50;;;;;;4909488;29;20063;-81
2022/05/02 00:09:26;;;;;;;6.70;4.50;;;8.60;91.80;;;;;;4907086;28;20051;-82
2022/05/02 00:11:59;;;;;;;5.38;3.72;;;8.60;91.80;;;;;;4949806;28;20479;-81
2022/05/02 00:14:26;;;;;;;6.55;3.78;;;8.60;91.90;;;;;;4950684;28;20034;-81
2022/05/02 00:16:58;;;;;;;6.10;3.50;;;8.60;92.00;;;;;;4930294;28;20035;-81
2022/05/02 00:19:24;;;;;;;4.97;3.97;;;8.50;92.00;;;;;;4919067;29;20039;-80
2022/05/02 00:21:50;;;;;;;8.32;4.20;;;8.50;92.10;;;;;;4910677;29;20027;-81
2022/05/02 00:24:17;;;;;;;5.10;4.15;;;8.50;92.20;;;;;;4897828;28;20121;-81
2022/05/02 00:26:43;;;;;;;6.85;4.30;;;8.50;92.40;;;;;;4896797;28;20364;-81
2022/05/02 00:29:10;;;;;;;6.22;4.65;;;8.40;92.50;;;;;;4902047;29;20069;-81
2022/05/02 00:31:36;;;;;;;5.75;4.20;;;8.40;92.60;;;;;;4902938;28;20062;-81
2022/05/02 00:34:03;;;;;;;5.75;3.88;;;8.40;92.70;;;;;;4905289;28;20046;-81
2022/05/02 00:36:29;;;;;;;6.78;4.75;;;8.40;92.80;;;;;;4919096;29;20043;-81
2022/05/02 00:38:56;;;;;;;7.05;4.68;;;8.30;92.90;;;;;;4903243;28;20356;-80
2022/05/02 00:41:23;;;;;;;8.32;4.65;;;8.30;93.00;;;;;;4901255;28;20427;-81
2022/05/02 00:43:49;;;;;;;8.77;4.63;;;8.30;93.20;;;;;;4910044;28;20458;-81
2022/05/02 00:46:21;;;;;;;7.10;4.70;;;8.20;93.30;;;;;;4931760;28;20395;-81
2022/05/02 00:48:48;;;;;;;6.43;4.53;;;8.30;93.50;;;;;;4934091;28;20038;-80
2022/05/02 00:51:15;;;;;;;8.90;5.25;;;8.20;93.50;;;;;;4915017;28;20461;-82
2022/05/02 00:53:51;;;;;;;7.95;5.57;;;8.20;93.70;;;;;;4919097;28;20478;-82
2022/05/02 00:56:18;;;;;;;;;;;8.10;93.80;;;;;;4917058;28;20424;-81
2022/05/02 00:58:44;;;;;;;6.15;4.53;;;8.10;94.00;;;;;;4920710;28;20393;-82
2022/05/02 01:01:11;;;;;;;10.82;5.93;;;8.20;94.00;;;;;;4905394;28;20042;-81
2022/05/02 01:03:40;;;;;;;7.15;4.45;;;8.10;94.10;;;;;;4901560;28;20031;-80
2022/05/02 01:08:53;;;;;;;7.38;4.95;;;8.10;94.40;;;;;;4918098;28;20058;-82
2022/05/02 01:11:19;;;;;;;6.85;4.85;;;8.00;94.50;;;;;;4935082;28;20527;-82
2022/05/02 01:13:48;;;;;;;6.10;4.32;;;8.00;94.60;;;;;;4933699;28;20501;-82
2022/05/02 01:16:19;;;;;;;7.72;5.40;;;8.00;94.70;;;;;;4932332;28;20027;-81
2022/05/02 01:18:48;;;;;;;6.72;4.78;;;8.00;94.80;;;;;;4927491;28;20023;-81
2022/05/02 01:21:17;;;;;;;8.23;5.07;;;7.90;94.90;;;;;;4932199;28;20046;-81
2022/05/02 01:23:59;;;;;;;7.18;5.22;;;8.00;95.10;;;;;;4949677;28;20046;-82
2022/05/02 01:26:32;;;;;;;8.35;5.53;;;7.90;95.20;;;;;;4937114;28;20478;-81
2022/05/02 01:29:10;;;;;;;7.13;5.07;;;7.90;95.30;;;;;;4948868;28;20057;-81
2022/05/02 01:31:55;;;;;;;8.25;5.32;;;7.90;95.50;;;;;;4933980;29;20521;-82
2022/05/02 01:34:22;;;;;;;8.52;5.05;;;7.90;95.50;;;;;;4950217;28;20207;-82
2022/05/02 01:36:58;;;;;;;6.53;4.63;;;7.90;95.60;;;;;;4908175;28;20137;-81
2022/05/02 01:39:44;;;;;;;6.20;4.85;;;7.80;95.70;;;;;;4952486;28;20047;-81
2022/05/02 01:42:15;;;;;;;8.85;5.38;;;7.80;95.80;;;;;;4919527;28;20506;-81
2022/05/02 01:44:43;;;;;;;7.53;5.10;;;7.80;96.00;;;;;;4947904;28;20031;-81
2022/05/02 01:47:12;;;;;;;6.50;4.88;;;7.80;96.20;;;;;;4933671;28;20047;-81
2022/05/02 01:49:44;;;;;;;7.43;5.13;;;7.80;96.20;;;;;;4931442;28;20050;-81
2022/05/02 01:52:15;;;;;;;9.35;4.85;;;7.80;96.30;;;;;;4930585;28;20038;-82
2022/05/02 01:54:47;;;;;;;7.22;4.93;;;7.80;96.40;;;;;;4917053;28;20039;-81
2022/05/02 01:57:21;;;;;;;10.07;5.20;;;7.80;96.50;;;;;;4921476;28;20471;-81
2022/05/02 01:59:47;;;;;;;6.43;5.05;;;7.80;96.50;;;;;;4931382;28;20531;-81
2022/05/02 02:02:17;;;;;;;9.18;5.75;;;7.70;96.70;;;;;;4949176;28;20039;-81
2022/05/02 02:07:34;;;;;;;6.20;5.22;;;7.80;96.90;;;;;;4942491;28;20051;-81
2022/05/02 02:10:01;;;;;;;7.47;6.10;;;7.70;97.00;;;;;;4948408;28;20482;-81
2022/05/02 02:12:36;;;;;;;7.43;5.95;;;7.70;97.10;;;;;;4907800;28;20050;-81
2022/05/02 02:15:02;;;;;;;9.63;5.50;;;7.70;97.20;;;;;;4930304;29;20411;-82
2022/05/02 02:17:29;;;;;;;8.13;5.78;;;7.70;97.40;;;;;;4917336;28;20043;-81
2022/05/02 02:20:27;;;;;;;7.53;5.47;;;7.70;97.50;;;;;;4915784;28;20088;-81
2022/05/02 02:22:57;;;;;;;9.77;5.70;;;7.70;97.60;;;;;;4934437;28;20031;-81
2022/05/02 02:25:33;;;;;;;10.15;6.30;;;7.70;97.70;;;;;;4918982;28;20054;-81
2022/05/02 02:28:19;;;;;;;6.53;5.47;;;7.70;97.90;;;;;;4929077;28;20051;-81
2022/05/02 02:30:59;;;;;;;7.78;5.85;;;7.60;97.90;;;;;;4932018;28;20377;-81
2022/05/02 02:33:44;;;;;;;9.45;5.90;;;7.60;98.20;;;;;;4933098;28;20044;-81
2022/05/02 02:36:13;;;;;;;9.10;5.72;;;7.60;98.20;;;;;;4932671;28;20039;-81
2022/05/02 02:39:17;;;;;;;7.10;5.43;;;7.60;98.30;;;;;;4930925;28;20035;-81
2022/05/02 02:41:46;;;;;;;7.65;5.70;;;7.60;98.50;;;;;;4926394;28;20024;-81
2022/05/02 02:44:36;;;;;;;7.82;5.70;;;7.60;98.40;;;;;;4946494;28;20039;-81
2022/05/02 02:47:13;;;;;;;8.35;6.68;;;7.60;98.50;;;;;;4931017;28;20050;-81
2022/05/02 02:49:48;;;;;;;7.60;5.80;;;7.60;98.80;;;;;;4931195;28;20047;-81
2022/05/02 02:52:15;;;;;;;9.95;6.47;;;7.50;98.90;;;;;;4948786;28;20043;-81
2022/05/02 02:54:52;;;;;;;10.18;6.80;;;7.50;98.90;;;;;;4915956;28;20043;-81
2022/05/02 02:57:21;;;;;;;9.80;6.60;;;7.50;99.30;;;;;;4947318;28;20036;-81
2022/05/02 02:59:49;;;;;;;8.77;5.53;;;7.50;99.30;;;;;;4933103;28;20055;-81
2022/05/02 03:02:22;;;;;;;8.68;6.03;;;7.50;99.40;;;;;;4934432;28;20424;-81
2022/05/02 03:07:54;;;;;;;7.68;5.82;;;7.40;99.50;;;;;;4949515;28;20047;-81
2022/05/02 03:10:23;;;;;;;7.03;5.03;;;7.40;99.50;;;;;;4945255;28;21295;-81
2022/05/02 03:12:54;;;;;;;8.30;5.90;;;7.40;99.60;;;;;;4899761;28;20035;-81
2022/05/02 03:15:21;;;;;;;8.00;5.80;;;7.40;99.70;;;;;;4901166;28;20487;-81
2022/05/02 03:17:50;;;;;;;8.65;6.30;;;7.30;99.70;;;;;;4919822;28;20039;-81
2022/05/02 03:20:17;;;;;;;8.65;5.40;;;7.30;99.70;;;;;;4950805;28;20034;-82
2022/05/02 03:23:08;;;;;;;7.55;5.28;;;7.30;99.80;;;;;;4935100;29;20035;-82
2022/05/02 03:25:38;;;;;;;8.02;6.07;;;7.30;99.90;;;;;;4936242;28;20062;-84
2022/05/02 03:28:12;;;;;;;8.45;5.80;;;7.20;99.90;;;;;;4949294;28;20483;-83
2022/05/02 03:30:40;;;;;;;10.82;5.45;;;7.20;99.90;;;;;;4935076;28;20065;-83
2022/05/02 03:33:15;;;;;;;9.00;5.57;;;7.20;99.90;;;;;;4950923;28;20031;-84
2022/05/02 03:36:01;;;;;;;8.15;5.38;;;7.20;99.90;;;;;;4948336;28;20035;-84
2022/05/02 03:38:39;;;;;;;10.38;5.57;;;7.10;99.90;;;;;;4931825;28;20035;-84
2022/05/02 03:41:06;;;;;;;8.43;5.15;;;7.10;99.90;;;;;;4934655;28;20153;-84
2022/05/02 03:43:34;;;;;;;7.18;5.38;;;7.10;99.90;;;;;;4931682;29;22958;-84
2022/05/02 03:46:01;;;;;;;9.15;5.65;;;7.10;99.90;;;;;;4915171;28;20039;-84
2022/05/02 03:48:40;;;;;;;6.82;5.53;;;7.10;99.90;;;;;;4920340;28;20055;-84
2022/05/02 03:51:11;;;;;;;7.20;5.35;;;7.10;99.90;;;;;;4934903;28;20379;-84
2022/05/02 03:53:38;;;;;;;6.50;5.55;;;7.00;99.90;;;;;;4950858;28;20404;-84
2022/05/02 03:56:05;;;;;;;7.82;6.05;;;7.00;99.90;;;;;;4935468;28;20471;-84
2022/05/02 03:58:31;;;;;;;8.13;6.15;;;7.00;99.90;;;;;;4902543;28;20383;-84
2022/05/02 04:00:59;;;;;;;9.95;5.97;;;7.00;99.90;;;;;;4917453;29;21533;-84
2022/05/02 04:03:26;;;;;;;7.88;5.85;;;7.00;99.90;;;;;;4935884;29;20487;-84
2022/05/02 04:05:56;;;;;;;8.50;5.45;;;7.00;99.90;;;;;;4914627;29;20514;-85
2022/05/02 04:08:25;;;;;;;6.60;5.07;;;7.00;99.90;;;;;;4931760;29;20040;-85
2022/05/02 04:10:51;;;;;;;8.55;5.88;;;7.00;99.90;;;;;;4932377;29;20043;-85
2022/05/02 04:13:19;;;;;;;8.20;5.88;;;6.90;99.90;;;;;;4912423;29;20044;-85
2022/05/02 04:15:49;;;;;;;8.85;6.38;;;7.00;99.90;;;;;;4898702;29;20043;-84
2022/05/02 04:18:16;;;;;;;8.73;5.88;;;6.90;99.90;;;;;;4930349;29;20035;-90
2022/05/02 04:20:43;;;;;;;9.38;5.55;;;6.90;99.90;;;;;;4883946;29;20039;-82
2022/05/02 04:23:10;;;;;;;8.50;5.82;;;6.90;99.90;;;;;;4930541;29;20040;-87
2022/05/02 04:25:37;;;;;;;9.52;6.10;;;6.90;99.90;;;;;;4899541;29;20028;-86
2022/05/02 04:28:07;;;;;;;13.60;9.20;;;6.90;99.90;;;;;;4928147;29;20032;-85
2022/05/02 04:30:35;;;;;;;9.77;7.17;;;6.90;99.90;;;;;;4872569;29;20035;-85
2022/05/02 04:33:02;;;;;;;11.70;7.13;;;6.90;99.90;;;;;;4931111;29;20055;-84
2022/05/02 04:35:28;;;;;;;10.38;6.65;;;6.90;99.90;;;;;;4911077;29;20369;-85
2022/05/02 04:37:56;;;;;;;9.40;6.57;;;6.90;99.90;;;;;;4899271;29;20043;-89
2022/05/02 04:40:22;;;;;;;9.82;6.65;;;7.00;99.90;;;;;;4914024;29;20509;-81
2022/05/02 04:42:49;;;;;;;11.60;7.40;;;7.00;99.90;;;;;;4894952;29;20058;-86
2022/05/02 04:45:18;;;;;;;10.65;7.60;;;7.00;99.90;;;;;;4895116;29;20039;-86
2022/05/02 04:47:50;;;;;;;11.52;7.20;;;7.10;99.90;;;;;;4915540;29;20392;-87
2022/05/02 04:50:18;;;;;;;11.65;8.00;;;7.20;99.90;;;;;;4891201;29;20747;-87
2022/05/02 04:52:52;;;;;;;15.32;9.10;;;7.30;99.90;;;;;;4932305;29;20067;-84
2022/05/02 04:55:18;;;;;;;10.30;7.82;;;7.40;99.90;;;;;;4917377;29;22888;-86
2022/05/02 04:57:46;;;;;;;8.38;6.97;;;7.50;99.90;;;;;;4931541;29;20040;-85
2022/05/02 05:00:16;;;;;;;12.90;7.22;;;7.60;99.90;;;;;;4897235;28;20043;-86
2022/05/02 05:02:43;;;;;;;9.60;6.43;;;7.80;99.90;;;;;;4918095;28;20035;-87
2022/05/02 05:05:14;;;;;;;8.63;6.93;;;7.90;99.90;;;;;;4948274;28;20031;-86
2022/05/02 05:07:41;;;;;;;17.58;11.90;;;8.10;99.90;;;;;;4931667;28;20046;-84
2022/05/02 05:10:09;;;;;;;17.42;11.50;;;8.20;99.90;;;;;;4914863;28;20912;-83
2022/05/02 05:13:13;;;;;;;12.88;9.32;;;8.20;99.90;;;;;;4869175;28;20081;-84
2022/05/02 05:16:32;;;;;;;12.57;8.07;;;8.30;99.90;;;;;;4933678;28;20039;-80
2022/05/02 05:19:10;;;;;;;12.02;7.45;;;8.40;99.90;;;;;;4930901;28;20047;-79
2022/05/02 05:21:44;;;;;;;11.18;7.15;;;8.40;99.90;;;;;;4916730;28;20024;-81
2022/05/02 05:24:35;;;;;;;11.30;6.97;;;8.50;99.90;;;;;;4931049;28;20035;-81
2022/05/02 05:27:08;;;;;;;10.80;6.57;;;8.60;99.90;;;;;;4933063;28;20050;-86
2022/05/02 05:29:47;;;;;;;9.63;7.13;;;8.70;99.90;;;;;;4931135;28;20059;-87
2022/05/02 05:32:35;;;;;;;9.02;6.43;;;8.80;99.90;;;;;;4902394;28;20039;-81
2022/05/02 05:35:09;;;;;;;8.38;6.72;;;9.00;99.90;;;;;;4948459;28;20035;-83
2022/05/02 05:37:47;;;;;;;11.05;7.07;;;9.10;99.90;;;;;;4935455;28;20579;-83
2022/05/02 05:40:29;;;;;;;6.97;5.60;;;9.30;99.90;;;;;;4924391;28;21332;-82
2022/05/02 05:43:14;;;;;;;10.13;7.75;;;9.50;99.90;;;;;;4917763;28;20395;-82
2022/05/02 05:45:59;;;;;;;9.38;8.13;;;9.70;99.90;;;;;;4929948;28;20047;-84
2022/05/02 05:48:55;;;;;;;11.20;8.15;;;9.90;99.90;;;;;;4912314;28;23453;-82
2022/05/02 05:51:48;;;;;;;13.93;10.57;;;10.20;99.90;;;;;;4911684;28;20357;-82
2022/05/02 05:54:38;;;;;;;8.90;7.43;;;10.40;99.90;;;;;;4912548;29;20042;-85
2022/05/02 05:57:28;;;;;;;7.68;6.20;;;10.60;99.90;;;;;;4927785;28;20027;-82
2022/05/02 06:00:04;;;;;;;10.07;7.32;;;10.80;99.90;;;;;;4905486;28;20522;-81
2022/05/02 06:03:08;;;;;;;9.55;6.93;;;11.00;99.90;;;;;;4930103;29;20043;-82
2022/05/02 06:05:47;;;;;;;9.77;8.15;;;11.20;99.90;;;;;;4915298;28;20054;-82
2022/05/02 06:08:22;;;;;;;10.32;7.55;;;11.40;99.90;;;;;;4926581;28;20375;-82
2022/05/02 06:10:55;;;;;;;11.30;7.40;;;11.50;99.90;;;;;;4908016;28;20031;-84
2022/05/02 06:13:22;;;;;;;8.27;6.07;;;11.70;99.90;;;;;;4911590;28;20066;-90
2022/05/02 06:18:37;;;;;;;8.88;6.55;;;12.20;99.90;;;;;;4927677;28;20038;-84
2022/05/02 06:21:18;;;;;;;8.45;5.88;;;12.40;99.50;;;;;;4907533;29;20034;-86
2022/05/02 06:24:08;;;;;;;;;;;;;;;;;;;;;
2022/05/02 06:27:22;;;;;;;9.02;6.18;;;12.80;98.60;;;;;;4903864;29;20047;-92
2022/05/02 06:29:51;;;;;;;9.63;5.45;;;13.20;98.00;;;;;;4893024;29;20043;-87
2022/05/02 06:32:44;;;;;;;6.15;4.97;;;13.50;97.10;;;;;;4884585;29;22507;-87
2022/05/02 06:35:13;;;;;;;6.30;4.95;;;13.70;96.50;;;;;;4890709;29;20048;-87
2022/05/02 06:37:58;;;;;;;8.32;6.72;;;13.80;95.80;;;;;;4886153;29;20020;-86
2022/05/02 06:40:51;;;;;;;6.13;4.55;;;13.90;95.20;;;;;;4887166;29;20024;-89
2022/05/02 06:44:06;;;;;;;6.53;4.13;;;14.20;94.90;;;;;;4876504;29;20531;-89
2022/05/02 06:47:23;;;;;;;6.95;6.20;;;14.50;94.70;;;;;;4882230;29;20028;-89
2022/05/02 06:50:06;;;;;;;6.20;5.03;;;14.90;93.80;;;;;;4863375;29;20053;-88
2022/05/02 06:53:30;;;;;;;8.82;6.43;;;15.10;93.50;;;;;;4883931;29;20044;-91
2022/05/02 06:56:51;;;;;;;5.38;4.65;;;15.20;92.00;;;;;;4866216;29;20084;-85
2022/05/02 06:59:57;;;;;;;5.60;4.35;;;15.20;91.90;;;;;;4914293;28;20403;-83
2022/05/02 07:03:25;;;;;;;4.88;4.35;;;15.30;91.50;;;;;;4837804;29;20514;-89
2022/05/02 07:06:19;;;;;;;6.57;5.07;;;15.40;90.30;;;;;;4909563;28;20031;-88
2022/05/02 07:09:06;;;;;;;5.78;4.25;;;15.40;90.50;;;;;;4941166;28;20043;-90
2022/05/02 07:11:38;;;;;;;6.35;4.93;;;15.50;90.20;;;;;;4922657;28;20023;-85
2022/05/02 07:14:33;;;;;;;10.50;5.32;;;15.60;89.40;;;;;;4911089;28;20046;-86
2022/05/02 07:17:42;;;;;;;5.30;4.57;;;15.70;89.60;;;;;;4924577;28;20474;-88
2022/05/02 07:20:37;;;;;;;8.68;4.80;;;15.80;88.90;;;;;;4920753;28;20483;-82
2022/05/02 07:23:25;;;;;;;6.43;4.85;;;16.00;88.20;;;;;;4924887;28;20039;-81
2022/05/02 07:26:09;;;;;;;9.93;5.82;;;16.00;87.10;;;;;;4939261;28;20490;-82
2022/05/02 07:28:45;;;;;;;6.93;5.55;;;16.10;85.50;;;;;;4945059;28;21265;-81
2022/05/02 07:31:24;;;;;;;10.00;7.13;;;16.20;85.00;;;;;;4947171;28;20505;-80
2022/05/02 07:33:53;;;;;;;8.63;6.80;;;16.30;83.00;;;;;;4947677;28;20039;-81
2022/05/02 07:36:26;;;;;;;13.45;10.43;;;16.30;82.10;;;;;;4901974;28;20507;-80
2022/05/02 07:39:03;;;;;;;11.75;7.20;;;16.30;82.00;;;;;;4943285;28;20034;-82
2022/05/02 07:41:37;;;;;;;7.70;5.97;;;16.30;81.30;;;;;;4940695;28;20411;-82
2022/05/02 07:44:36;;;;;;;10.10;5.10;;;16.40;80.10;;;;;;4905600;28;20471;-84
2022/05/02 07:47:13;;;;;;;5.43;4.38;;;16.30;80.00;;;;;;4923897;28;20522;-85
2022/05/02 07:49:50;;;;;;;8.88;6.30;;;16.40;80.20;;;;;;4910275;28;20040;-83
2022/05/02 07:52:31;;;;;;;8.73;6.47;;;16.50;79.50;;;;;;4909920;29;20541;-82
2022/05/02 07:55:02;;;;;;;11.10;7.05;;;16.60;78.30;;;;;;4929774;28;20047;-81
2022/05/02 07:57:33;;;;;;;8.45;6.45;;;16.60;78.00;;;;;;4928955;28;20035;-79
2022/05/02 08:00:07;;;;;;;6.50;5.32;;;16.70;77.30;;;;;;4924179;28;20055;-79
2022/05/02 08:02:42;;;;;;;5.78;4.95;;;16.80;76.90;;;;;;4944209;28;20027;-79
2022/05/02 08:05:18;;;;;;;4.88;4.30;;;16.80;77.00;;;;;;4927742;28;20023;-79
2022/05/02 08:07:45;;;;;;;7.40;5.65;;;17.00;77.10;;;;;;4926392;28;20031;-79
2022/05/02 08:10:49;;;;;;;7.20;4.60;;;17.10;76.10;;;;;;4931299;28;20847;-82
2022/05/02 08:13:36;;;;;;;8.63;6.35;;;17.10;75.70;;;;;;4941998;28;20039;-83
2022/05/02 08:16:14;;;;;;;6.32;4.63;;;17.20;74.50;;;;;;4912757;28;20043;-86
2022/05/02 08:19:35;;;;;;;14.52;9.73;;;17.20;74.50;;;;;;4943953;28;20024;-81
2022/05/02 08:28:14;;;;;;;6.85;4.68;;;17.50;73.60;;;;;;4910613;28;20035;-82
2022/05/02 08:31:14;;;;;;;8.52;5.57;;;17.60;72.60;;;;;;4911216;28;20035;-77
2022/05/02 08:33:53;;;;;;;6.63;4.55;;;17.70;72.30;;;;;;4941397;28;20483;-81
2022/05/02 08:36:43;;;;;;;9.93;6.70;;;17.70;72.00;;;;;;4929144;28;20026;-82
2022/05/02 08:39:21;;;;;;;8.00;6.78;;;17.80;71.30;;;;;;4894356;29;20039;-82
2022/05/02 08:42:15;;;;;;;12.70;6.72;;;17.80;70.70;;;;;;4912785;28;20027;-79
2022/05/02 08:45:04;;;;;;;9.13;6.72;;;17.90;70.80;;;;;;4928149;28;20019;-81
2022/05/02 08:47:49;;;;;;;7.82;6.72;;;18.00;69.50;;;;;;4910267;28;20479;-81
2022/05/02 08:50:19;;;;;;;8.85;5.97;;;18.10;69.50;;;;;;4907172;28;20039;-80
2022/05/02 08:52:59;;;;;;;7.65;5.35;;;18.20;69.30;;;;;;4924137;28;20027;-82
2022/05/02 08:55:59;;;;;;;7.97;6.82;;;18.30;69.30;;;;;;4929290;28;20043;-82
2022/05/02 08:58:47;;;;;;;13.13;7.97;;;18.50;68.30;;;;;;4943232;28;20632;-81
2022/05/02 09:01:38;;;;;;;6.97;6.35;;;18.50;67.50;;;;;;4909434;28;20035;-86
2022/05/02 09:04:38;;;;;;;7.68;6.45;;;18.60;67.10;;;;;;4909261;28;20039;-87
2022/05/02 09:07:14;;;;;;;13.30;6.72;;;18.70;66.60;;;;;;4891274;29;20063;-85
2022/05/02 09:10:05;;;;;;;6.38;5.50;;;18.80;65.80;;;;;;4912237;28;20031;-85
2022/05/02 09:13:02;;;;;;;8.95;6.53;;;18.90;66.00;;;;;;4912222;28;20043;-87
2022/05/02 09:15:54;;;;;;;8.75;6.25;;;19.00;65.30;;;;;;4916076;28;20035;-87
2022/05/02 09:18:55;;;;;;;7.53;6.45;;;19.00;64.90;;;;;;4942358;28;20407;-86
2022/05/02 09:21:41;;;;;;;7.72;5.90;;;19.00;64.40;;;;;;4907394;28;20042;-86
2022/05/02 09:24:30;;;;;;;7.05;6.25;;;19.10;64.60;;;;;;4930223;28;20027;-83
2022/05/02 09:27:15;;;;;;;6.07;4.82;;;19.30;63.80;;;;;;4925917;28;20046;-83
2022/05/02 09:29:57;;;;;;;7.82;6.40;;;19.40;64.30;;;;;;4941251;28;20043;-82
2022/05/02 09:32:38;;;;;;;7.90;6.10;;;19.60;63.50;;;;;;4908885;28;20050;-84
2022/05/02 09:35:12;;;;;;;6.70;5.40;;;19.80;63.10;;;;;;4900656;28;20042;-84
2022/05/02 09:37:41;;;;;;;6.13;5.05;;;19.90;62.40;;;;;;4923958;28;20293;-82
2022/05/02 09:40:17;;;;;;;9.82;6.25;;;20.10;62.30;;;;;;4923610;28;20035;-84
2022/05/02 09:43:17;;;;;;;7.63;5.82;;;20.10;60.80;;;;;;4925615;28;20023;-85
2022/05/02 09:52:25;;;;;;;6.30;5.70;;;20.50;60.00;;;;;;4945555;28;20098;-83
2022/05/02 09:58:31;;;;;;;8.40;5.90;;;20.90;58.50;;;;;;4940944;28;20032;-82
2022/05/02 10:01:06;;;;;;;9.63;6.05;;;21.00;58.20;;;;;;4923801;28;20050;-82
2022/05/02 10:04:11;;;;;;;8.07;7.00;;;21.00;57.60;;;;;;4893729;28;20441;-82
2022/05/02 10:06:44;;;;;;;8.15;6.50;;;21.00;56.20;;;;;;4934760;28;20057;-86
2022/05/02 10:09:33;;;;;;;9.43;6.88;;;20.60;56.70;;;;;;4917942;28;20034;-83
2022/05/02 10:12:36;;;;;;;9.02;7.55;;;20.50;57.20;;;;;;4924601;28;20043;-82
2022/05/02 10:15:21;;;;;;;6.03;4.93;;;20.50;57.30;;;;;;4929620;28;20134;-80
2022/05/02 10:17:58;;;;;;;5.45;4.63;;;20.40;57.90;;;;;;4926078;28;20016;-81
2022/05/02 10:20:57;;;;;;;6.15;5.55;;;20.40;57.70;;;;;;4928537;28;20039;-83
2022/05/02 10:24:16;;;;;;;7.55;6.15;;;20.20;57.40;;;;;;4918247;28;20042;-84
2022/05/02 10:26:55;;;;;;;8.60;5.18;;;20.10;57.50;;;;;;4912556;29;20046;-84
2022/05/02 10:29:46;;;;;;;8.98;6.93;;;20.20;57.70;;;;;;4915943;28;20398;-83
2022/05/02 10:32:41;;;;;;;6.30;5.47;;;20.60;57.40;;;;;;4910160;28;20043;-82
2022/05/02 10:35:13;;;;;;;9.68;6.82;;;21.10;57.50;;;;;;4916378;28;20039;-88
2022/05/02 10:37:43;;;;;;;9.02;6.65;;;21.60;56.20;;;;;;4929777;28;20019;-82
2022/05/02 10:40:12;;;;;;;5.40;4.72;;;22.00;54.70;;;;;;4924471;28;20028;-82
2022/05/02 10:43:18;;;;;;;8.32;5.85;;;22.10;54.60;;;;;;4942971;28;20035;-88
2022/05/02 10:45:46;;;;;;;6.00;4.53;;;22.30;53.90;;;;;;4940663;28;20542;-84
2022/05/02 10:48:18;;;;;;;5.53;5.03;;;22.10;53.80;;;;;;4929090;28;20039;-86
2022/05/02 10:51:20;;;;;;;5.90;5.03;;;21.70;54.20;;;;;;4909335;28;20419;-82
2022/05/02 10:54:26;;;;;;;7.13;5.95;;;21.70;54.60;;;;;;4929567;28;20039;-83
2022/05/02 10:57:42;;;;;;;7.43;5.35;;;21.90;54.50;;;;;;4930131;28;20035;-86
2022/05/02 11:00:11;;;;;;;5.10;4.60;;;22.50;53.80;;;;;;4911385;28;20062;-86
2022/05/02 11:03:17;;;;;;;4.32;3.90;;;22.90;52.70;;;;;;4928931;28;20039;-85
2022/05/02 11:06:25;;;;;;;9.10;8.13;;;23.20;52.80;;;;;;4946942;28;20035;-89
2022/05/02 11:09:02;;;;;;;8.80;6.97;;;23.60;50.80;;;;;;4928307;28;20032;-86
2022/05/02 11:15:25;;;;;;;6.85;5.43;;;24.20;50.00;;;;;;4912469;29;20028;-86
2022/05/02 11:18:08;;;;;;;5.00;4.18;;;24.70;48.40;;;;;;4928042;28;20029;-88
2022/05/02 11:20:46;;;;;;;3.80;3.40;;;25.10;48.70;;;;;;4892808;28;20031;-87
2022/05/02 11:23:29;;;;;;;6.72;5.35;;;25.50;47.90;;;;;;4922009;29;20031;-86
2022/05/02 11:26:33;;;;;;;4.68;4.28;;;25.70;47.20;;;;;;4940766;28;20031;-88
2022/05/02 11:29:10;;;;;;;7.25;6.13;;;26.20;47.00;;;;;;4914647;28;20363;-85
2022/05/02 11:31:58;;;;;;;5.63;4.75;;;26.40;45.10;;;;;;4941462;28;20031;-86
2022/05/02 11:34:59;;;;;;;7.15;5.65;;;26.60;45.20;;;;;;4911650;29;20031;-83
2022/05/02 11:37:43;;;;;;;7.38;5.18;;;26.40;44.20;;;;;;4899897;28;20339;-85
2022/05/02 11:40:11;;;;;;;5.97;5.43;;;26.20;44.50;;;;;;4929643;29;20023;-86
2022/05/02 11:42:48;;;;;;;5.63;5.05;;;26.40;44.20;;;;;;4946001;28;20046;-84
2022/05/02 11:45:17;;;;;;;8.52;5.65;;;26.40;43.40;;;;;;4913299;28;20028;-84
2022/05/02 11:48:32;;;;;;;5.90;5.30;;;25.90;43.60;;;;;;4945939;28;20026;-84
2022/05/02 11:51:06;;;;;;;4.60;4.20;;;25.20;44.00;;;;;;4911459;28;20039;-87
2022/05/02 11:53:37;;;;;;;6.85;4.43;;;25.30;44.50;;;;;;4933421;28;20027;-86
2022/05/02 11:56:05;;;;;;;6.10;4.72;;;25.80;44.30;;;;;;4913015;28;20043;-86
2022/05/02 11:58:45;;;;;;;5.25;4.75;;;26.50;43.60;;;;;;4932529;28;20050;-86
2022/05/02 12:01:16;;;;;;;6.43;5.50;;;26.90;42.10;;;;;;4897802;29;20027;-86
2022/05/02 12:04:00;;;;;;;7.68;5.07;;;27.10;42.30;;;;;;4909982;29;20022;-86
2022/05/02 12:06:43;;;;;;;4.85;4.28;;;27.70;41.70;;;;;;4895536;29;20027;-85
2022/05/02 12:09:35;;;;;;;;;;;28.20;41.30;;;;;;4928438;29;20030;-85
2022/05/02 12:12:09;;;;;;;4.93;4.47;;;28.70;40.90;;;;;;4909905;29;19906;-84
2022/05/02 12:14:36;;;;;;;7.88;4.85;;;28.90;40.40;;;;;;4921593;29;20400;-84
2022/05/02 12:17:13;;;;;;;7.90;7.10;;;28.40;39.50;;;;;;4910694;29;20597;-85
2022/05/02 12:19:40;;;;;;;5.80;5.20;;;27.60;39.80;;;;;;4892530;29;20043;-85
2022/05/02 12:22:24;;;;;;;5.38;4.20;;;27.50;41.00;;;;;;4891527;29;20036;-85
2022/05/02 12:25:03;;;;;;;5.32;4.68;;;28.00;40.10;;;;;;4880482;29;20047;-81
2022/05/02 12:27:34;;;;;;;6.07;4.43;;;28.70;40.90;;;;;;4881323;29;20024;-83
2022/05/02 12:30:02;;;;;;;4.47;4.07;;;29.50;39.50;;;;;;4911181;29;20035;-82
2022/05/02 12:32:31;;;;;;;4.88;4.40;;;30.20;39.10;;;;;;4895524;29;20397;-82
2022/05/02 12:35:00;;;;;;;4.93;4.38;;;30.70;38.50;;;;;;4895597;29;20043;-81
2022/05/02 12:37:36;;;;;;;6.30;3.72;;;30.70;37.20;;;;;;4923966;29;20035;-82
2022/05/02 12:40:05;;;;;;;5.47;4.13;;;30.40;37.10;;;;;;4907851;29;20036;-81
2022/05/02 12:42:47;;;;;;;4.95;4.55;;;29.80;37.80;;;;;;4905531;29;20361;-81
2022/05/02 12:45:17;;;;;;;6.05;5.07;;;28.90;37.90;;;;;;4910595;28;20030;-81
2022/05/02 12:47:53;;;;;;;6.03;5.43;;;28.00;38.60;;;;;;4896392;29;20028;-81
2022/05/02 12:50:21;;;;;;;5.55;4.90;;;27.10;38.70;;;;;;4891630;29;20032;-80
2022/05/02 12:52:57;;;;;;;5.47;4.68;;;26.20;39.80;;;;;;4906478;29;20468;-80
2022/05/02 12:55:31;;;;;;;5.97;5.38;;;25.70;40.60;;;;;;4910102;29;20483;-83
2022/05/02 13:00:48;;;;;;;5.63;4.70;;;25.60;41.40;;;;;;4936853;28;20035;-82
2022/05/02 13:03:17;;;;;;;7.03;5.00;;;25.70;40.80;;;;;;4899930;28;20031;-80
2022/05/02 13:05:56;;;;;;;10.00;7.55;;;25.50;41.10;;;;;;4940856;28;20038;-81
2022/05/02 13:08:31;;;;;;;12.07;10.88;;;25.00;41.50;;;;;;4916789;28;20047;-85
2022/05/02 13:11:12;;;;;;;8.32;6.28;;;24.70;42.60;;;;;;4913517;28;20031;-83
2022/05/02 13:13:54;;;;;;;6.38;5.00;;;25.10;43.10;;;;;;4911512;28;20031;-82
2022/05/02 13:16:29;;;;;;;5.78;5.20;;;25.70;41.70;;;;;;4897514;29;20518;-82
2022/05/02 13:19:00;;;;;;;5.13;4.30;;;25.70;41.10;;;;;;4913220;28;20027;-84
2022/05/02 13:21:30;;;;;;;8.48;7.38;;;25.60;41.40;;;;;;4895124;28;20027;-83
2022/05/02 13:24:07;;;;;;;6.07;5.47;;;26.50;41.60;;;;;;4930424;29;20380;-83
2022/05/02 13:27:17;;;;;;;7.15;6.45;;;27.90;40.70;;;;;;4943651;28;20016;-83
2022/05/02 13:30:09;;;;;;;5.05;4.22;;;29.30;38.70;;;;;;4923474;28;20495;-82
2022/05/02 13:33:00;;;;;;;3.75;3.08;;;30.50;37.30;;;;;;4931129;28;20264;-83
2022/05/02 13:35:33;;;;;;;4.47;4.05;;;31.70;36.80;;;;;;4943881;28;20043;-81
2022/05/02 13:38:41;;;;;;;5.03;4.60;;;32.40;35.20;;;;;;4941513;28;20043;-81
2022/05/02 13:41:33;;;;;;;8.15;6.38;;;32.20;34.00;;;;;;4922424;28;20028;-81
2022/05/02 13:44:15;;;;;;;7.50;6.80;;;31.60;34.60;;;;;;4899610;28;20046;-86
2022/05/02 13:46:51;;;;;;;;;;;31.50;34.30;;;;;;4927867;28;20050;-84
2022/05/02 13:49:47;;;;;;;5.47;4.28;;;30.90;35.10;;;;;;4932674;28;20290;-84
2022/05/02 13:52:29;;;;;;;6.00;3.53;;;30.30;34.70;;;;;;4924804;29;20043;-88
2022/05/02 13:55:29;;;;;;;5.13;4.30;;;29.60;35.40;;;;;;4916112;29;20035;-84
2022/05/02 13:58:11;;;;;;;5.13;4.03;;;28.90;36.30;;;;;;4911292;28;20038;-84
2022/05/02 14:03:47;;;;;;;9.32;8.00;;;28.50;36.40;;;;;;4925522;29;20035;-82
2022/05/02 14:06:22;;;;;;;9.45;8.55;;;28.30;37.00;;;;;;4926417;28;20032;-83
2022/05/02 14:09:01;;;;;;;6.70;5.22;;;27.90;37.40;;;;;;4926104;28;20062;-83
2022/05/02 14:11:29;;;;;;;6.63;4.40;;;27.30;37.60;;;;;;4924805;28;20695;-83
2022/05/02 14:14:12;;;;;;;5.65;4.13;;;26.70;38.10;;;;;;4945690;28;20028;-83
2022/05/02 14:16:41;;;;;;;5.13;3.88;;;26.10;39.20;;;;;;4925559;28;20024;-81
2022/05/02 14:19:17;;;;;;;23.05;20.65;;;25.60;40.00;;;;;;4944627;28;20023;-83
2022/05/02 14:21:46;;;;;;;8.70;7.70;;;25.50;40.40;;;;;;4926239;28;20034;-84
2022/05/02 14:24:16;;;;;;;5.43;4.68;;;26.20;40.40;;;;;;4930460;28;20475;-84
2022/05/02 14:27:02;;;;;;;4.20;3.80;;;27.60;39.30;;;;;;4943370;28;20028;-84
2022/05/02 14:29:39;;;;;;;4.20;3.80;;;29.40;37.80;;;;;;4938977;28;20020;-85